Terminal Aerodrome Forecast
Issued by NWS Mobile, AL

Current Version | Previous Version | Text Only | Print | Product List | Glossary On
Versions: 1 2 3 4 5 6 7 8 9 10 11 12 13 14
000
FTUS44 KMOB 172300 RRA
TAFPNS
TAF
KPNS 172344Z 1800/1824 06005KT P6SM OVC045
     FM180400 07014KT 4SM SHRA SCT007 OVC010
      TEMPO 1804/1808 2SM SHRA BKN007
     FM180800 05014G21KT 3SM SHRA BR OVC007
     FM181600 36008G15KT 4SM -RA OVC015
     FM181900 36010G18KT P6SM VCSH SCT015 BKN050=

USA.gov is the U.S. government's official web portal to all federal, state and local government web resources and services.